createdAt,value
2023-02-19T00:01:57.921Z,85.80
2023-02-19T00:04:25.865Z,85.90
2023-02-19T00:06:56.303Z,86.00
2023-02-19T00:09:24.307Z,86.20
2023-02-19T00:11:52.396Z,86.10
2023-02-19T00:14:21.226Z,86.40
2023-02-19T00:16:49.547Z,86.40
2023-02-19T00:19:19.080Z,86.50
2023-02-19T00:21:49.822Z,87.20
2023-02-19T00:24:17.893Z,87.20
2023-02-19T00:26:48.592Z,87.00
2023-02-19T00:29:17.803Z,87.40
2023-02-19T00:31:46.768Z,87.10
2023-02-19T00:34:17.036Z,86.90
2023-02-19T00:36:47.205Z,87.10
2023-02-19T00:39:18.795Z,87.00
2023-02-19T00:41:47.528Z,87.40
2023-02-19T00:44:15.726Z,87.30
2023-02-19T00:46:48.543Z,87.50
2023-02-19T00:49:20.902Z,87.40
2023-02-19T00:51:51.883Z,87.40
2023-02-19T00:54:22.790Z,87.60
2023-02-19T00:56:51.794Z,87.90
2023-02-19T00:59:20.323Z,88.10
2023-02-19T01:01:50.021Z,88.10
2023-02-19T01:04:18.668Z,88.30
2023-02-19T01:06:49.121Z,88.40
2023-02-19T01:09:17.049Z,88.30
2023-02-19T01:11:45.559Z,88.70
2023-02-19T01:14:13.629Z,88.90
2023-02-19T01:16:44.365Z,88.90
2023-02-19T01:19:13.079Z,89.30
2023-02-19T01:21:41.254Z,89.80
2023-02-19T01:24:10.356Z,89.70
2023-02-19T01:26:38.415Z,89.90
2023-02-19T01:29:06.866Z,90.10
2023-02-19T01:31:35.447Z,90.20
2023-02-19T01:34:04.519Z,90.30
2023-02-19T01:36:35.522Z,90.30
2023-02-19T01:39:06.519Z,90.40
2023-02-19T01:41:39.879Z,90.40
2023-02-19T01:44:11.851Z,90.50
2023-02-19T01:46:41.450Z,90.60
2023-02-19T01:49:09.362Z,90.60
2023-02-19T01:51:39.548Z,90.70
2023-02-19T01:54:10.401Z,90.80
2023-02-19T01:56:38.816Z,90.90
2023-02-19T01:59:07.822Z,90.90
2023-02-19T02:01:38.025Z,91.00
2023-02-19T02:04:06.365Z,91.10
2023-02-19T02:06:56.231Z,91.10
2023-02-19T02:09:45.358Z,91.50
2023-02-19T02:12:14.612Z,91.50
2023-02-19T02:14:44.297Z,91.60
2023-02-19T02:17:21.544Z,91.60
2023-02-19T02:19:53.102Z,91.60
2023-02-19T02:22:25.859Z,91.70
2023-02-19T02:25:06.490Z,91.80
2023-02-19T02:27:53.444Z,91.90
2023-02-19T02:30:33.688Z,92.00
2023-02-19T02:33:25.915Z,92.40
2023-02-19T02:35:56.984Z,92.10
2023-02-19T02:38:27.644Z,92.30
2023-02-19T02:40:56.449Z,92.30
2023-02-19T02:43:25.477Z,92.30
2023-02-19T02:45:53.544Z,92.30
2023-02-19T02:48:39.063Z,92.40
2023-02-19T02:51:07.097Z,92.40
2023-02-19T02:54:03.621Z,92.50
2023-02-19T02:56:32.420Z,92.60
2023-02-19T02:59:02.087Z,92.60
2023-02-19T03:01:51.894Z,92.60
2023-02-19T03:04:24.805Z,92.70
2023-02-19T03:06:53.286Z,92.60
2023-02-19T03:09:30.633Z,92.70
2023-02-19T03:12:19.697Z,92.80
2023-02-19T03:15:08.247Z,92.90
2023-02-19T03:17:54.791Z,93.10
2023-02-19T03:20:24.111Z,93.10
2023-02-19T03:22:53.370Z,93.00
2023-02-19T03:25:43.694Z,93.20
2023-02-19T03:28:17.874Z,93.30
2023-02-19T03:30:52.860Z,93.30
2023-02-19T03:33:23.716Z,93.40
2023-02-19T03:36:03.324Z,93.30
2023-02-19T03:38:44.684Z,93.40
2023-02-19T03:41:16.650Z,93.50
2023-02-19T03:43:46.385Z,93.70
2023-02-19T03:46:23.477Z,93.50
2023-02-19T03:48:54.903Z,93.60
2023-02-19T03:51:46.250Z,93.60
2023-02-19T03:54:26.747Z,93.70
2023-02-19T03:56:59.844Z,93.90
2023-02-19T03:59:32.988Z,93.90
2023-02-19T04:02:12.290Z,94.00
2023-02-19T04:04:44.991Z,94.10
2023-02-19T04:07:16.063Z,94.10
2023-02-19T04:09:46.543Z,94.10
2023-02-19T04:12:19.531Z,94.20
2023-02-19T04:15:01.034Z,94.20
2023-02-19T04:17:35.725Z,94.40
2023-02-19T04:20:09.453Z,94.40
2023-02-19T04:22:38.959Z,94.60
2023-02-19T04:25:07.950Z,94.50
2023-02-19T04:27:39.865Z,94.60
2023-02-19T04:30:09.654Z,94.50
2023-02-19T04:32:39.900Z,94.70
2023-02-19T04:35:07.991Z,94.60
2023-02-19T04:37:36.021Z,94.60
2023-02-19T04:40:04.200Z,94.70
2023-02-19T04:42:32.084Z,94.80
2023-02-19T04:45:02.237Z,94.70
2023-02-19T04:47:31.802Z,94.80
2023-02-19T04:49:59.728Z,94.90
2023-02-19T04:52:27.757Z,95.10
2023-02-19T04:54:58.025Z,95.20
2023-02-19T04:57:26.033Z,95.20
2023-02-19T04:59:54.894Z,95.50
2023-02-19T05:02:23.005Z,95.40
2023-02-19T05:04:50.971Z,95.40
2023-02-19T05:07:24.132Z,95.50
2023-02-19T05:09:52.906Z,95.50
2023-02-19T05:12:21.081Z,95.80
2023-02-19T05:14:49.424Z,95.50
2023-02-19T05:17:19.933Z,95.60
2023-02-19T05:19:48.086Z,95.60
2023-02-19T05:22:16.030Z,95.60
2023-02-19T05:24:44.094Z,95.80
2023-02-19T05:27:16.907Z,95.50
2023-02-19T05:29:44.806Z,95.60
2023-02-19T05:32:12.767Z,95.50
2023-02-19T05:34:40.885Z,95.60
2023-02-19T05:37:08.870Z,95.40
2023-02-19T05:39:36.755Z,95.30
2023-02-19T05:42:04.732Z,95.50
2023-02-19T05:44:32.802Z,95.30
2023-02-19T05:47:00.720Z,95.30
2023-02-19T05:49:28.945Z,95.10
2023-02-19T05:51:56.864Z,95.00
2023-02-19T05:54:24.941Z,94.70
2023-02-19T05:56:52.953Z,94.80
2023-02-19T05:59:25.168Z,94.70
2023-02-19T06:01:56.926Z,94.60
2023-02-19T06:04:24.965Z,94.60
2023-02-19T06:06:55.874Z,94.50
2023-02-19T06:09:23.974Z,94.30
2023-02-19T06:11:51.953Z,94.40
2023-02-19T06:14:23.009Z,94.30
2023-02-19T06:16:51.209Z,94.20
2023-02-19T06:19:19.280Z,94.00
2023-02-19T06:21:50.032Z,93.90
2023-02-19T06:24:18.135Z,93.80
2023-02-19T06:26:46.964Z,93.60
2023-02-19T06:29:17.352Z,93.30
2023-02-19T06:31:45.489Z,92.90
2023-02-19T06:34:13.719Z,92.30
2023-02-19T06:36:45.060Z,91.30
2023-02-19T06:39:12.946Z,90.50
2023-02-19T06:41:40.925Z,89.30
2023-02-19T06:44:11.871Z,87.40
2023-02-19T06:46:39.922Z,85.30
2023-02-19T06:49:10.175Z,84.10
2023-02-19T06:51:38.161Z,83.10
2023-02-19T06:54:06.391Z,81.60
2023-02-19T06:56:35.564Z,80.90
2023-02-19T06:59:04.977Z,79.70
2023-02-19T07:01:34.174Z,79.30
2023-02-19T07:04:05.847Z,79.00
2023-02-19T07:06:34.578Z,78.20
2023-02-19T07:09:03.118Z,77.20
2023-02-19T07:11:32.636Z,75.90
2023-02-19T07:14:02.042Z,74.70
2023-02-19T07:16:32.853Z,73.50
2023-02-19T07:19:01.939Z,72.20
2023-02-19T07:21:30.117Z,70.90
2023-02-19T07:23:58.293Z,69.90
2023-02-19T07:26:26.416Z,68.90
2023-02-19T07:28:54.842Z,67.50
2023-02-19T07:31:24.016Z,66.20
2023-02-19T07:33:52.098Z,65.00
2023-02-19T07:36:20.622Z,64.40
2023-02-19T07:38:53.858Z,63.80
2023-02-19T07:41:21.904Z,62.80
2023-02-19T07:43:50.130Z,62.20
2023-02-19T07:46:18.334Z,61.50
2023-02-19T07:48:46.622Z,60.60
2023-02-19T07:51:17.757Z,59.90
2023-02-19T07:53:46.691Z,59.10
2023-02-19T07:56:15.043Z,58.70
2023-02-19T07:58:45.759Z,57.10
2023-02-19T08:01:15.343Z,56.20
2023-02-19T08:03:43.818Z,55.40
2023-02-19T08:06:12.593Z,54.60
2023-02-19T08:08:40.915Z,54.20
2023-02-19T08:11:28.769Z,53.40
2023-02-19T08:13:56.832Z,52.20
2023-02-19T08:16:37.208Z,50.90
2023-02-19T08:19:09.798Z,50.10
2023-02-19T08:21:37.818Z,49.50
2023-02-19T08:24:06.028Z,48.90
2023-02-19T08:26:34.163Z,46.70
2023-02-19T08:29:02.428Z,43.80
2023-02-19T08:31:30.487Z,42.50
2023-02-19T08:34:01.008Z,42.60
2023-02-19T08:36:29.174Z,41.00
2023-02-19T08:38:57.172Z,40.20
2023-02-19T08:41:25.058Z,39.20
2023-02-19T08:43:53.109Z,39.50
2023-02-19T08:46:21.566Z,39.20
2023-02-19T08:48:49.656Z,38.20
2023-02-19T08:51:17.689Z,38.10
2023-02-19T08:53:46.355Z,37.40
2023-02-19T08:56:15.851Z,37.40
2023-02-19T08:58:44.472Z,36.80
2023-02-19T09:01:16.878Z,35.00
2023-02-19T09:03:45.216Z,36.10
2023-02-19T09:06:17.708Z,36.40
2023-02-19T09:08:45.911Z,34.70
2023-02-19T09:11:14.182Z,35.60
2023-02-19T09:13:42.762Z,35.00
2023-02-19T09:16:11.379Z,34.20
2023-02-19T09:18:39.329Z,34.10
2023-02-19T09:21:07.284Z,33.50
2023-02-19T09:23:36.484Z,33.30
2023-02-19T09:26:08.959Z,32.50
2023-02-19T09:28:36.947Z,32.10
2023-02-19T09:31:15.395Z,33.70
2023-02-19T09:33:47.447Z,35.40
2023-02-19T09:36:16.258Z,37.10
2023-02-19T09:38:44.536Z,39.40
2023-02-19T09:41:18.664Z,40.00
2023-02-19T09:43:46.747Z,37.30
2023-02-19T09:46:29.816Z,34.30
2023-02-19T09:49:03.065Z,33.60
2023-02-19T09:51:32.897Z,32.40
2023-02-19T09:54:01.737Z,31.60
2023-02-19T09:56:32.356Z,31.30
2023-02-19T09:59:00.551Z,29.90
2023-02-19T10:01:31.289Z,31.60
2023-02-19T10:03:59.383Z,33.70
2023-02-19T10:06:30.050Z,34.00
2023-02-19T10:09:12.041Z,34.20
2023-02-19T10:11:43.256Z,35.70
2023-02-19T10:14:20.763Z,33.40
2023-02-19T10:16:50.513Z,31.90
2023-02-19T10:19:18.663Z,31.10
2023-02-19T10:21:46.836Z,30.00
2023-02-19T10:24:24.549Z,29.40
2023-02-19T10:26:52.544Z,28.80
2023-02-19T10:29:22.182Z,29.00
2023-02-19T10:31:50.304Z,29.10
2023-02-19T10:34:22.557Z,30.00
2023-02-19T10:36:56.513Z,29.60
2023-02-19T10:39:33.773Z,29.90
2023-02-19T10:42:02.838Z,29.10
2023-02-19T10:44:37.968Z,28.80
2023-02-19T10:47:06.343Z,27.80
2023-02-19T10:49:36.134Z,28.00
2023-02-19T10:52:17.957Z,28.00
2023-02-19T10:54:47.267Z,28.10
2023-02-19T10:57:30.559Z,29.00
2023-02-19T11:00:01.580Z,29.60
2023-02-19T11:02:30.540Z,30.40
2023-02-19T11:05:16.680Z,32.40
2023-02-19T11:07:49.844Z,32.10
2023-02-19T11:10:23.996Z,31.50
2023-02-19T11:12:52.995Z,31.20
2023-02-19T11:15:31.628Z,30.40
2023-02-19T11:18:08.536Z,31.10
2023-02-19T11:20:36.468Z,30.00
2023-02-19T11:23:11.448Z,29.40
2023-02-19T11:25:44.815Z,29.10
2023-02-19T11:28:24.839Z,29.00
2023-02-19T11:30:52.854Z,29.30
2023-02-19T11:33:23.110Z,29.00
2023-02-19T11:35:52.777Z,28.90
2023-02-19T11:38:21.981Z,28.20
2023-02-19T11:41:08.792Z,28.80
2023-02-19T11:43:55.549Z,28.50
2023-02-19T11:46:30.891Z,28.30
2023-02-19T11:49:07.810Z,28.00
2023-02-19T11:51:38.950Z,27.50
2023-02-19T11:54:16.016Z,27.20
2023-02-19T11:56:45.683Z,27.00
2023-02-19T11:59:31.044Z,27.40
2023-02-19T12:01:59.117Z,26.60
2023-02-19T12:04:37.625Z,26.40
2023-02-19T12:07:05.769Z,27.10
2023-02-19T12:09:43.864Z,26.80
2023-02-19T12:12:31.849Z,26.80
2023-02-19T12:15:02.823Z,26.90
2023-02-19T12:18:03.346Z,26.60
2023-02-19T12:20:32.000Z,26.30
2023-02-19T12:23:18.917Z,26.00
2023-02-19T12:26:02.192Z,26.00
2023-02-19T12:28:33.128Z,25.40
2023-02-19T12:31:01.085Z,25.10
2023-02-19T12:33:41.264Z,25.50
2023-02-19T12:36:15.392Z,25.80
2023-02-19T12:38:44.632Z,25.30
2023-02-19T12:41:21.704Z,25.00
2023-02-19T12:44:08.828Z,25.30
2023-02-19T12:46:38.902Z,24.80
2023-02-19T12:49:39.296Z,25.20
2023-02-19T12:52:10.168Z,25.40
2023-02-19T12:54:48.731Z,25.20
2023-02-19T12:57:23.163Z,25.50
2023-02-19T12:59:51.643Z,25.00
2023-02-19T13:02:19.569Z,25.30
2023-02-19T13:05:08.574Z,25.40
2023-02-19T13:07:38.977Z,25.70
2023-02-19T13:10:25.590Z,26.10
2023-02-19T13:12:54.361Z,25.90
2023-02-19T13:15:26.148Z,26.50
2023-02-19T13:17:56.125Z,26.80
2023-02-19T13:20:25.360Z,26.30
2023-02-19T13:23:18.072Z,26.40
2023-02-19T13:25:49.166Z,26.50
2023-02-19T13:28:24.382Z,26.10
2023-02-19T13:30:52.511Z,26.20
2023-02-19T13:33:39.172Z,26.30
2023-02-19T13:36:13.898Z,26.30
2023-02-19T13:38:43.479Z,25.90
2023-02-19T13:41:19.072Z,26.80
2023-02-19T13:43:53.382Z,27.20
2023-02-19T13:46:21.707Z,27.50
2023-02-19T13:49:09.654Z,27.40
2023-02-19T13:51:38.892Z,27.50
2023-02-19T13:54:14.236Z,28.10
2023-02-19T13:56:42.225Z,28.40
2023-02-19T13:59:24.853Z,28.40
2023-02-19T14:01:59.040Z,28.50
2023-02-19T14:04:33.013Z,28.80
2023-02-19T14:07:03.998Z,28.10
2023-02-19T14:09:34.891Z,28.10
2023-02-19T14:12:06.044Z,28.60
2023-02-19T14:14:37.158Z,29.00
2023-02-19T14:17:13.000Z,28.90
2023-02-19T14:19:54.257Z,28.90
2023-02-19T14:22:41.027Z,29.30
2023-02-19T14:25:18.862Z,29.40
2023-02-19T14:27:47.049Z,30.40
2023-02-19T14:30:15.082Z,30.40
2023-02-19T14:32:45.250Z,30.40
2023-02-19T14:35:23.421Z,30.50
2023-02-19T14:37:52.509Z,30.70
2023-02-19T14:40:23.383Z,31.90
2023-02-19T14:42:53.522Z,33.00
2023-02-19T14:45:22.267Z,33.50
2023-02-19T14:47:51.905Z,33.80
2023-02-19T14:50:30.798Z,34.10
2023-02-19T14:53:00.252Z,34.40
2023-02-19T14:55:38.195Z,34.80
2023-02-19T14:58:08.121Z,35.20
2023-02-19T15:00:40.087Z,35.90
2023-02-19T15:03:24.734Z,36.30
2023-02-19T15:06:20.538Z,36.50
2023-02-19T15:08:49.959Z,37.00
2023-02-19T15:11:20.817Z,37.90
2023-02-19T15:13:54.039Z,38.80
2023-02-19T15:16:25.617Z,38.70
2023-02-19T15:18:55.381Z,39.10
2023-02-19T15:21:24.977Z,39.20
2023-02-19T15:24:03.286Z,40.50
2023-02-19T15:26:38.604Z,41.10
2023-02-19T15:29:11.420Z,39.70
2023-02-19T15:31:54.841Z,41.20
2023-02-19T15:34:30.425Z,42.40
2023-02-19T15:37:00.417Z,42.80
2023-02-19T15:39:44.067Z,41.30
2023-02-19T15:42:18.507Z,41.20
2023-02-19T15:44:59.410Z,42.70
2023-02-19T15:47:34.706Z,43.20
2023-02-19T15:50:11.007Z,43.40
2023-02-19T15:52:42.166Z,42.00
2023-02-19T15:55:13.278Z,43.60
2023-02-19T15:57:43.198Z,44.00
2023-02-19T16:00:15.485Z,44.20
2023-02-19T16:02:43.552Z,45.20
2023-02-19T16:05:12.395Z,45.00
2023-02-19T16:07:40.385Z,45.60
2023-02-19T16:10:24.409Z,45.90
2023-02-19T16:12:58.440Z,46.30
2023-02-19T16:15:27.525Z,46.70
2023-02-19T16:17:55.760Z,47.00
2023-02-19T16:20:28.249Z,47.60
2023-02-19T16:23:04.241Z,47.70
2023-02-19T16:25:37.349Z,48.30
2023-02-19T16:28:12.798Z,48.40
2023-02-19T16:30:41.772Z,48.60
2023-02-19T16:33:28.138Z,48.90
2023-02-19T16:35:56.153Z,49.40
2023-02-19T16:38:24.090Z,49.80
2023-02-19T16:40:52.693Z,50.30
2023-02-19T16:43:31.695Z,50.60
2023-02-19T16:45:59.924Z,51.10
2023-02-19T16:48:28.352Z,51.40
2023-02-19T16:50:56.480Z,51.50
2023-02-19T16:53:30.575Z,52.00
2023-02-19T16:55:58.823Z,52.10
2023-02-19T16:58:27.014Z,52.40
2023-02-19T17:00:55.248Z,52.70
2023-02-19T17:03:24.791Z,53.10
2023-02-19T17:05:53.174Z,53.60
2023-02-19T17:08:34.240Z,53.60
2023-02-19T17:11:03.236Z,53.90
2023-02-19T17:13:31.124Z,54.70
2023-02-19T17:15:59.330Z,54.60
2023-02-19T17:18:27.306Z,54.70
2023-02-19T17:21:15.470Z,55.10
2023-02-19T17:23:43.444Z,55.50
2023-02-19T17:26:15.693Z,55.80
2023-02-19T17:28:43.746Z,56.00
2023-02-19T17:31:12.170Z,56.70
2023-02-19T17:33:40.710Z,56.80
2023-02-19T17:36:09.362Z,57.00
2023-02-19T17:38:37.360Z,57.00
2023-02-19T17:41:05.335Z,57.20
2023-02-19T17:43:33.373Z,57.40
2023-02-19T17:46:01.336Z,57.60
2023-02-19T17:48:29.318Z,57.50
2023-02-19T17:50:57.413Z,57.60
2023-02-19T17:53:25.374Z,57.60
2023-02-19T17:55:53.304Z,58.00
2023-02-19T17:58:21.182Z,58.30
2023-02-19T18:00:49.104Z,58.30
2023-02-19T18:03:16.980Z,58.80
2023-02-19T18:05:44.859Z,59.00
2023-02-19T18:08:13.060Z,59.10
2023-02-19T18:10:41.731Z,59.30
2023-02-19T18:13:10.833Z,59.40
2023-02-19T18:15:38.936Z,59.50
2023-02-19T18:18:06.958Z,59.60
2023-02-19T18:20:35.388Z,60.00
2023-02-19T18:23:03.410Z,60.30
2023-02-19T18:25:31.526Z,60.70
2023-02-19T18:27:59.873Z,60.60
2023-02-19T18:30:28.855Z,60.60
2023-02-19T18:32:57.902Z,61.10
2023-02-19T18:35:25.818Z,61.40
2023-02-19T18:37:54.288Z,61.50
2023-02-19T18:40:23.354Z,62.20
2023-02-19T18:42:51.428Z,62.20
2023-02-19T18:45:19.560Z,62.40
2023-02-19T18:47:48.362Z,62.50
2023-02-19T18:50:16.979Z,62.40
2023-02-19T18:52:44.999Z,62.20
2023-02-19T18:55:13.334Z,62.20
2023-02-19T18:57:41.371Z,61.70
2023-02-19T19:00:09.881Z,62.00
2023-02-19T19:02:48.663Z,62.50
2023-02-19T19:05:18.878Z,62.50
2023-02-19T19:07:46.842Z,62.60
2023-02-19T19:10:15.134Z,62.70
2023-02-19T19:12:43.085Z,62.50
2023-02-19T19:15:11.214Z,62.80
2023-02-19T19:17:39.345Z,62.70
2023-02-19T19:20:07.867Z,62.80
2023-02-19T19:22:35.807Z,63.00
2023-02-19T19:25:04.537Z,62.40
2023-02-19T19:27:32.491Z,62.60
2023-02-19T19:30:00.652Z,62.60
2023-02-19T19:32:28.962Z,62.70
2023-02-19T19:34:58.052Z,62.80
2023-02-19T19:37:28.406Z,62.90
2023-02-19T19:39:56.807Z,62.90
2023-02-19T19:42:24.824Z,62.90
2023-02-19T19:44:53.076Z,63.20
2023-02-19T19:47:21.220Z,63.10
2023-02-19T19:49:49.138Z,63.60
2023-02-19T19:52:17.207Z,63.90
2023-02-19T19:54:45.251Z,64.10
2023-02-19T19:57:13.480Z,64.80
2023-02-19T19:59:42.350Z,64.60
2023-02-19T20:02:10.955Z,65.10
2023-02-19T20:04:38.847Z,65.00
2023-02-19T20:07:06.861Z,65.20
2023-02-19T20:09:34.813Z,65.20
2023-02-19T20:12:04.631Z,65.20
2023-02-19T20:14:34.054Z,65.10
2023-02-19T20:17:02.105Z,65.30
2023-02-19T20:19:30.018Z,65.20
2023-02-19T20:21:58.208Z,65.30
2023-02-19T20:24:28.859Z,65.30
2023-02-19T20:27:00.862Z,65.50
2023-02-19T20:29:30.106Z,65.20
2023-02-19T20:32:03.894Z,65.20
2023-02-19T20:34:31.941Z,65.60
2023-02-19T20:36:59.937Z,65.50
2023-02-19T20:39:29.655Z,65.40
2023-02-19T20:41:58.502Z,65.30
2023-02-19T20:44:27.631Z,65.50
2023-02-19T20:46:56.069Z,65.50
2023-02-19T20:49:25.657Z,65.40
2023-02-19T20:51:58.439Z,65.50
2023-02-19T20:54:30.499Z,65.40
2023-02-19T20:56:59.691Z,65.50
2023-02-19T20:59:31.032Z,65.30
2023-02-19T21:01:59.210Z,65.40
2023-02-19T21:04:27.327Z,65.30
2023-02-19T21:06:55.384Z,65.30
2023-02-19T21:09:23.686Z,65.80
2023-02-19T21:11:52.116Z,65.80
2023-02-19T21:14:20.162Z,65.70
2023-02-19T21:16:50.423Z,66.10
2023-02-19T21:19:18.381Z,65.80
2023-02-19T21:21:46.418Z,66.00
2023-02-19T21:24:15.091Z,66.20
2023-02-19T21:26:43.662Z,66.40
2023-02-19T21:29:14.892Z,66.60
2023-02-19T21:31:44.407Z,66.50
2023-02-19T21:34:13.840Z,66.70
2023-02-19T21:36:41.787Z,66.60
2023-02-19T21:39:10.629Z,66.70
2023-02-19T21:41:38.503Z,66.70
2023-02-19T21:44:06.437Z,66.90
2023-02-19T21:46:34.544Z,67.20
2023-02-19T21:49:04.076Z,67.20
2023-02-19T21:51:34.606Z,67.00
2023-02-19T21:54:03.030Z,67.10
2023-02-19T21:56:33.926Z,67.30
2023-02-19T21:59:05.312Z,67.10
2023-02-19T22:01:34.249Z,67.20
2023-02-19T22:04:02.448Z,67.30
2023-02-19T22:06:31.253Z,67.30
2023-02-19T22:08:59.641Z,67.60
2023-02-19T22:11:27.650Z,67.40
2023-02-19T22:13:55.522Z,67.50
2023-02-19T22:16:24.309Z,67.50
2023-02-19T22:18:53.466Z,67.70
2023-02-19T22:21:22.550Z,67.90
2023-02-19T22:23:51.457Z,68.40
2023-02-19T22:26:23.737Z,68.00
2023-02-19T22:28:51.905Z,68.40
2023-02-19T22:31:21.730Z,68.60
2023-02-19T22:33:49.666Z,69.00
2023-02-19T22:36:19.166Z,69.10
2023-02-19T22:38:47.262Z,68.90
2023-02-19T22:41:17.994Z,69.00
2023-02-19T22:43:46.041Z,69.90
2023-02-19T22:46:15.558Z,70.30
2023-02-19T22:48:43.616Z,69.90
2023-02-19T22:51:16.062Z,70.00
2023-02-19T22:53:52.885Z,70.20
2023-02-19T22:56:22.584Z,70.20
2023-02-19T22:58:50.674Z,70.10
2023-02-19T23:01:19.066Z,70.20
2023-02-19T23:03:48.435Z,70.30
2023-02-19T23:06:17.365Z,71.10
2023-02-19T23:08:45.372Z,70.80
2023-02-19T23:11:13.782Z,71.50
2023-02-19T23:13:42.811Z,71.30
2023-02-19T23:16:11.210Z,71.10
2023-02-19T23:18:39.738Z,71.00
2023-02-19T23:21:08.003Z,71.40
2023-02-19T23:23:35.897Z,71.80
2023-02-19T23:26:04.387Z,71.80
2023-02-19T23:28:32.386Z,71.90
2023-02-19T23:31:00.594Z,72.30
2023-02-19T23:33:28.578Z,72.50
2023-02-19T23:35:56.500Z,72.70
2023-02-19T23:38:24.488Z,73.20
2023-02-19T23:40:52.411Z,73.00
2023-02-19T23:43:21.440Z,73.20
2023-02-19T23:45:50.584Z,73.20
2023-02-19T23:48:18.538Z,73.90
2023-02-19T23:50:46.436Z,74.20
2023-02-19T23:53:14.421Z,73.90
2023-02-19T23:55:42.397Z,74.30
2023-02-19T23:58:10.383Z,74.80
